Terminal Aerodrome Forecast
Issued by NWS Cleveland, OH

Home | Current Version | Previous Version | Graphics & Text | Print | Product List | Glossary Off
Versions: 1 2 3 4 5 6 7 8 9 10 11 12 13 14 15 16

000
FTUS41 KCLE 271130
TAFTOL
TAF
KTOL 271130Z 2712/2812 21005KT P6SM BKN250
     FM271500 21008KT P6SM SCT050 BKN250
     FM280200 19005KT P6SM BKN250
      TEMPO 2810/2812 4SM BR=

USA.gov is the U.S. government's official web portal to all federal, state and local government web resources and services.